createdAt,value
2023-03-30T00:02:23.196Z,8.20
2023-03-30T00:04:50.323Z,8.10
2023-03-30T00:07:17.082Z,8.50
2023-03-30T00:09:43.837Z,7.90
2023-03-30T00:12:10.802Z,8.03
2023-03-30T00:14:42.650Z,7.77
2023-03-30T00:17:09.560Z,8.60
2023-03-30T00:19:38.994Z,7.80
2023-03-30T00:22:05.907Z,8.10
2023-03-30T00:24:32.492Z,8.27
2023-03-30T00:26:59.271Z,8.00
2023-03-30T00:29:26.007Z,8.27
2023-03-30T00:31:53.032Z,7.80
2023-03-30T00:34:19.597Z,8.53
2023-03-30T00:36:49.251Z,7.50
2023-03-30T00:39:18.968Z,8.37
2023-03-30T00:41:45.942Z,7.83
2023-03-30T00:44:31.152Z,7.67
2023-03-30T00:46:58.183Z,7.77
2023-03-30T00:49:25.234Z,7.60
2023-03-30T00:51:51.887Z,8.43
2023-03-30T00:54:19.412Z,7.63
2023-03-30T00:56:46.208Z,8.03
2023-03-30T00:59:13.208Z,7.30
2023-03-30T01:01:40.580Z,7.20
2023-03-30T01:04:07.598Z,7.60
2023-03-30T01:06:34.307Z,7.67
2023-03-30T01:09:01.147Z,8.07
2023-03-30T01:11:28.060Z,7.53
2023-03-30T01:13:59.359Z,7.60
2023-03-30T01:16:26.373Z,7.83
2023-03-30T01:19:11.594Z,6.93
2023-03-30T01:21:58.840Z,6.77
2023-03-30T01:24:28.640Z,7.30
2023-03-30T01:26:56.832Z,6.70
2023-03-30T01:29:27.528Z,7.20
2023-03-30T01:32:01.271Z,7.10
2023-03-30T01:34:30.944Z,7.63
2023-03-30T01:37:16.152Z,6.97
2023-03-30T01:39:52.817Z,6.80
2023-03-30T01:42:23.463Z,6.83
2023-03-30T02:16:59.889Z,7.73
2023-03-30T02:19:27.964Z,7.40
2023-03-30T02:21:54.583Z,8.13
2023-03-30T02:24:23.006Z,7.37
2023-03-30T02:26:50.564Z,7.50
2023-03-30T02:29:18.449Z,7.67
2023-03-30T02:31:45.428Z,8.10
2023-03-30T02:34:29.985Z,7.53
2023-03-30T02:37:02.020Z,7.70
2023-03-30T02:39:28.903Z,7.67
2023-03-30T02:42:07.595Z,7.53
2023-03-30T02:44:37.668Z,7.70
2023-03-30T02:47:06.067Z,7.33
2023-03-30T02:49:49.282Z,7.07
2023-03-30T02:52:16.030Z,7.43
2023-03-30T02:54:47.192Z,6.97
2023-03-30T02:57:35.332Z,7.33
2023-03-30T03:00:25.077Z,7.23
2023-03-30T03:02:53.324Z,7.30
2023-03-30T03:05:25.400Z,6.80
2023-03-30T03:08:19.007Z,7.30
2023-03-30T03:10:48.101Z,7.50
2023-03-30T03:13:16.320Z,7.03
2023-03-30T03:15:47.151Z,7.37
2023-03-30T03:18:13.754Z,6.70
2023-03-30T03:20:41.947Z,7.13
2023-03-30T03:23:09.126Z,6.70
2023-03-30T03:25:43.523Z,6.77
2023-03-30T03:28:12.544Z,6.53
2023-03-30T03:30:42.882Z,6.50
2023-03-30T03:33:15.829Z,7.33
2023-03-30T03:35:48.464Z,6.37
2023-03-30T03:38:16.246Z,6.77
2023-03-30T03:40:43.084Z,7.27
2023-03-30T03:43:11.110Z,7.00
2023-03-30T03:45:37.797Z,6.80
2023-03-30T03:48:04.448Z,6.30
2023-03-30T03:50:42.995Z,6.80
2023-03-30T03:53:09.905Z,6.97
2023-03-30T03:55:36.840Z,6.87
2023-03-30T03:58:07.457Z,7.17
2023-03-30T04:00:36.340Z,6.37
2023-03-30T04:03:05.120Z,6.60
2023-03-30T04:05:32.689Z,7.20
2023-03-30T04:07:59.533Z,6.70
2023-03-30T04:10:26.437Z,7.40
2023-03-30T04:13:00.635Z,7.50
2023-03-30T04:15:46.616Z,7.67
2023-03-30T04:18:32.338Z,7.70
2023-03-30T04:21:20.434Z,7.20
2023-03-30T04:24:13.610Z,7.30
2023-03-30T04:26:53.752Z,7.30
2023-03-30T04:29:59.007Z,6.80
2023-03-30T04:32:44.927Z,7.07
2023-03-30T04:35:33.390Z,7.33
2023-03-30T04:38:00.566Z,8.03
2023-03-30T04:41:05.786Z,7.20
2023-03-30T04:43:48.173Z,7.03
2023-03-30T04:46:25.816Z,8.40
2023-03-30T04:49:12.645Z,8.43
2023-03-30T04:51:57.860Z,9.67
2023-03-30T04:54:44.209Z,9.00
2023-03-30T04:57:33.588Z,9.97
2023-03-30T05:00:13.727Z,9.17
2023-03-30T05:03:06.513Z,8.63
2023-03-30T05:05:52.392Z,8.73
2023-03-30T05:08:41.642Z,9.10
2023-03-30T05:11:31.761Z,9.47
2023-03-30T05:14:16.454Z,8.73
2023-03-30T05:16:59.676Z,8.37
2023-03-30T05:19:44.018Z,8.73
2023-03-30T05:22:21.499Z,9.07
2023-03-30T05:25:11.392Z,9.00
2023-03-30T05:28:00.436Z,9.43
2023-03-30T05:30:48.835Z,8.97
2023-03-30T05:33:35.061Z,10.07
2023-03-30T05:36:20.884Z,9.83
2023-03-30T05:39:00.466Z,10.13
2023-03-30T05:42:01.753Z,9.43
2023-03-30T05:44:46.913Z,9.10
2023-03-30T05:47:49.332Z,8.53
2023-03-30T05:50:39.227Z,9.17
2023-03-30T05:53:12.369Z,9.37
2023-03-30T05:56:05.178Z,9.13
2023-03-30T05:58:58.108Z,8.30
2023-03-30T06:01:45.945Z,8.40
2023-03-30T06:04:13.754Z,8.93
2023-03-30T06:06:42.075Z,8.47
2023-03-30T06:09:09.156Z,9.17
2023-03-30T06:11:36.910Z,9.07
2023-03-30T06:14:17.342Z,9.07
2023-03-30T06:16:54.752Z,8.50
2023-03-30T06:19:22.371Z,9.30
2023-03-30T06:21:48.993Z,9.50
2023-03-30T06:24:33.759Z,10.33
2023-03-30T06:27:03.014Z,9.50
2023-03-30T06:29:30.869Z,9.77
2023-03-30T06:31:59.291Z,11.00
2023-03-30T06:34:41.183Z,12.53
2023-03-30T06:37:09.119Z,11.10
2023-03-30T06:39:37.949Z,11.77
2023-03-30T06:42:06.543Z,11.83
2023-03-30T06:44:48.059Z,12.33
2023-03-30T06:47:16.336Z,11.43
2023-03-30T06:49:43.031Z,11.70
2023-03-30T06:52:34.485Z,11.80
2023-03-30T06:55:01.517Z,11.40
2023-03-30T06:57:28.458Z,11.97
2023-03-30T06:59:56.434Z,11.87
2023-03-30T07:02:23.714Z,12.33
2023-03-30T07:05:06.151Z,12.30
2023-03-30T07:07:44.566Z,12.00
2023-03-30T07:10:12.296Z,10.97
2023-03-30T07:12:39.272Z,11.70
2023-03-30T07:15:08.000Z,11.00
2023-03-30T07:17:36.371Z,11.40
2023-03-30T07:20:05.871Z,11.77
2023-03-30T07:22:33.594Z,10.40
2023-03-30T07:25:02.654Z,10.33
2023-03-30T07:27:29.392Z,11.13
2023-03-30T07:30:04.825Z,9.87
2023-03-30T07:32:37.992Z,9.33
2023-03-30T07:35:08.904Z,10.30
2023-03-30T07:37:39.586Z,10.27
2023-03-30T07:40:10.594Z,10.40
2023-03-30T07:42:40.452Z,10.43
2023-03-30T07:45:07.642Z,10.53
2023-03-30T07:47:34.538Z,11.00
2023-03-30T07:50:01.852Z,10.00
2023-03-30T07:52:29.635Z,11.20
2023-03-30T07:55:01.218Z,10.93
2023-03-30T07:57:34.646Z,10.47
2023-03-30T08:00:02.274Z,10.43
2023-03-30T08:03:04.749Z,11.27
2023-03-30T08:05:32.865Z,10.83
2023-03-30T08:08:14.345Z,9.83
2023-03-30T08:10:41.268Z,10.60
2023-03-30T08:13:09.041Z,11.40
2023-03-30T08:15:35.863Z,10.90
2023-03-30T08:18:06.821Z,11.73
2023-03-30T08:20:37.129Z,11.10
2023-03-30T08:23:04.575Z,11.40
2023-03-30T08:25:31.364Z,11.10
2023-03-30T08:27:58.130Z,12.73
2023-03-30T08:30:25.200Z,11.17
2023-03-30T08:32:52.125Z,12.10
2023-03-30T08:35:20.575Z,12.20
2023-03-30T08:37:47.431Z,12.73
2023-03-30T08:40:15.459Z,12.37
2023-03-30T08:42:47.538Z,12.73
2023-03-30T08:45:14.689Z,12.60
2023-03-30T08:47:42.961Z,11.40
2023-03-30T08:50:37.039Z,12.23
2023-03-30T08:53:05.742Z,12.20
2023-03-30T08:55:38.630Z,10.73
2023-03-30T08:58:05.459Z,11.80
2023-03-30T09:00:44.468Z,11.63
2023-03-30T09:03:19.577Z,11.20
2023-03-30T09:05:48.664Z,10.80
2023-03-30T09:08:18.499Z,12.53
2023-03-30T09:10:46.821Z,11.70
2023-03-30T09:13:19.506Z,11.00
2023-03-30T09:15:48.069Z,10.10
2023-03-30T09:18:17.931Z,10.90
2023-03-30T09:20:46.155Z,10.80
2023-03-30T09:23:14.020Z,11.43
2023-03-30T09:25:54.957Z,10.73
2023-03-30T09:28:40.641Z,10.77
2023-03-30T09:31:09.433Z,10.53
2023-03-30T09:33:40.148Z,10.23
2023-03-30T09:36:16.418Z,10.37
2023-03-30T09:38:43.931Z,10.23
2023-03-30T09:41:30.080Z,9.63
2023-03-30T09:43:58.462Z,10.03
2023-03-30T09:46:27.183Z,10.53
2023-03-30T09:48:53.812Z,10.27
2023-03-30T09:51:21.994Z,10.40
2023-03-30T09:53:50.043Z,9.57
2023-03-30T09:56:21.216Z,9.63
2023-03-30T09:58:47.948Z,8.43
2023-03-30T10:01:16.900Z,7.60
2023-03-30T10:03:45.032Z,8.87
2023-03-30T10:06:16.076Z,6.73
2023-03-30T10:08:44.429Z,7.60
2023-03-30T10:11:11.729Z,6.53
2023-03-30T10:13:39.271Z,7.43
2023-03-30T10:16:08.038Z,7.37
2023-03-30T10:18:35.840Z,7.50
2023-03-30T10:21:06.871Z,7.67
2023-03-30T10:23:44.897Z,8.70
2023-03-30T10:26:15.543Z,8.50
2023-03-30T10:28:50.880Z,7.30
2023-03-30T10:31:17.647Z,8.57
2023-03-30T10:33:44.746Z,7.77
2023-03-30T10:36:11.922Z,8.53
2023-03-30T10:38:39.743Z,8.67
2023-03-30T10:41:12.853Z,9.23
2023-03-30T10:43:39.670Z,9.77
2023-03-30T10:46:19.464Z,10.27
2023-03-30T10:49:16.975Z,9.63
2023-03-30T10:52:02.327Z,9.57
2023-03-30T10:54:47.773Z,10.50
2023-03-30T10:57:18.956Z,10.50
2023-03-30T10:59:46.722Z,9.43
2023-03-30T11:02:17.221Z,10.40
2023-03-30T11:04:45.620Z,9.63
2023-03-30T11:07:14.069Z,9.43
2023-03-30T11:09:41.180Z,9.70
2023-03-30T11:12:15.711Z,9.30
2023-03-30T11:14:45.618Z,10.00
2023-03-30T11:17:32.724Z,7.77
2023-03-30T11:20:01.942Z,6.83
2023-03-30T11:22:41.356Z,6.50
2023-03-30T11:25:16.179Z,8.40
2023-03-30T11:28:03.128Z,10.00
2023-03-30T11:30:30.698Z,9.03
2023-03-30T11:32:58.725Z,9.37
2023-03-30T11:35:47.162Z,9.93
2023-03-30T11:38:25.058Z,9.27
2023-03-30T11:40:51.945Z,9.63
2023-03-30T11:43:19.655Z,8.50
2023-03-30T11:45:59.742Z,8.43
2023-03-30T11:48:50.502Z,8.47
2023-03-30T11:51:20.459Z,9.10
2023-03-30T11:53:47.170Z,8.80
2023-03-30T11:56:16.001Z,9.10
2023-03-30T11:58:44.112Z,9.07
2023-03-30T12:01:14.280Z,9.17
2023-03-30T12:03:49.271Z,8.87
2023-03-30T12:06:31.308Z,8.40
2023-03-30T12:09:04.842Z,8.23
2023-03-30T12:11:38.339Z,8.17
2023-03-30T12:14:08.510Z,8.77
2023-03-30T12:16:40.649Z,9.27
2023-03-30T12:19:12.070Z,10.13
2023-03-30T12:21:40.842Z,9.73
2023-03-30T12:24:23.028Z,10.77
2023-03-30T12:27:04.678Z,10.17
2023-03-30T12:32:28.447Z,9.43
2023-03-30T12:34:56.841Z,10.90
2023-03-30T12:37:36.434Z,11.67
2023-03-30T12:40:23.087Z,10.23
2023-03-30T12:43:10.100Z,9.87
2023-03-30T12:45:40.672Z,10.70
2023-03-30T12:48:19.828Z,11.20
2023-03-30T12:50:50.970Z,11.13
2023-03-30T12:53:17.875Z,12.07
2023-03-30T12:55:54.266Z,11.07
2023-03-30T12:58:37.144Z,13.80
2023-03-30T13:01:03.995Z,12.97
2023-03-30T13:03:47.746Z,10.83
2023-03-30T13:06:24.477Z,10.67
2023-03-30T13:08:55.842Z,12.00
2023-03-30T13:11:22.774Z,14.97
2023-03-30T13:13:56.527Z,14.67
2023-03-30T13:16:42.155Z,11.33
2023-03-30T13:19:21.255Z,12.20
2023-03-30T13:21:49.237Z,14.47
2023-03-30T13:24:42.367Z,16.33
2023-03-30T13:27:15.185Z,18.07
2023-03-30T13:29:42.316Z,17.73
2023-03-30T13:32:27.744Z,20.60
2023-03-30T13:35:07.960Z,16.67
2023-03-30T13:37:53.777Z,18.60
2023-03-30T13:40:41.575Z,16.47
2023-03-30T13:43:17.666Z,15.00
2023-03-30T13:45:50.573Z,14.10
2023-03-30T13:48:24.870Z,15.33
2023-03-30T13:50:53.868Z,14.60
2023-03-30T13:53:21.101Z,14.83
2023-03-30T13:55:48.490Z,15.73
2023-03-30T13:58:19.587Z,15.27
2023-03-30T14:00:49.071Z,16.07
2023-03-30T14:03:27.752Z,17.80
2023-03-30T14:05:54.866Z,17.83
2023-03-30T14:08:21.553Z,18.00
2023-03-30T14:10:50.108Z,17.37
2023-03-30T14:13:18.239Z,16.77
2023-03-30T14:15:45.605Z,17.47
2023-03-30T14:18:13.285Z,18.27
2023-03-30T14:20:43.157Z,20.90
2023-03-30T14:23:33.200Z,20.83
2023-03-30T14:26:01.220Z,20.80
2023-03-30T14:28:28.184Z,21.43
2023-03-30T14:30:57.893Z,20.70
2023-03-30T14:33:24.870Z,20.03
2023-03-30T14:35:53.025Z,20.30
2023-03-30T14:38:19.685Z,20.37
2023-03-30T14:40:47.961Z,20.80
2023-03-30T14:43:22.198Z,21.33
2023-03-30T14:45:50.721Z,21.77
2023-03-30T14:48:21.365Z,20.67
2023-03-30T14:50:48.927Z,21.43
2023-03-30T14:53:16.719Z,22.13
2023-03-30T14:55:43.772Z,21.40
2023-03-30T14:58:13.050Z,19.70
2023-03-30T15:00:42.380Z,22.70
2023-03-30T15:03:19.676Z,22.60
2023-03-30T15:05:54.261Z,21.33
2023-03-30T15:08:21.834Z,21.87
2023-03-30T15:10:50.495Z,22.07
2023-03-30T15:13:29.052Z,22.57
2023-03-30T15:15:58.463Z,21.83
2023-03-30T15:18:26.044Z,21.23
2023-03-30T15:20:53.197Z,22.03
2023-03-30T15:23:19.999Z,20.83
2023-03-30T15:25:46.960Z,22.90
2023-03-30T15:28:14.176Z,24.67
2023-03-30T15:30:44.164Z,22.13
2023-03-30T15:33:21.113Z,21.77
2023-03-30T15:35:55.667Z,22.63
2023-03-30T15:38:34.391Z,22.63
2023-03-30T15:41:02.475Z,21.90
2023-03-30T15:43:31.441Z,21.47
2023-03-30T15:46:06.061Z,21.40
2023-03-30T15:48:42.840Z,21.93
2023-03-30T15:51:21.960Z,23.13
2023-03-30T15:53:57.156Z,22.20
2023-03-30T15:56:36.138Z,22.37
2023-03-30T15:59:03.240Z,25.20
2023-03-30T16:01:59.428Z,25.87
2023-03-30T16:04:26.376Z,25.97
2023-03-30T16:06:53.270Z,25.80
2023-03-30T16:09:20.277Z,24.50
2023-03-30T16:11:49.414Z,23.10
2023-03-30T16:14:23.113Z,22.63
2023-03-30T16:16:50.072Z,22.87
2023-03-30T16:19:22.792Z,22.40
2023-03-30T16:21:50.150Z,23.73
2023-03-30T16:24:19.762Z,22.00
2023-03-30T16:26:47.440Z,24.50
2023-03-30T16:29:19.634Z,23.33
2023-03-30T16:31:47.016Z,24.37
2023-03-30T16:34:14.617Z,25.37
2023-03-30T16:36:44.665Z,25.47
2023-03-30T16:39:18.500Z,24.90
2023-03-30T16:41:45.970Z,24.53
2023-03-30T16:44:12.839Z,25.33
2023-03-30T16:46:42.432Z,25.80
2023-03-30T16:49:27.449Z,27.20
2023-03-30T16:51:57.862Z,25.30
2023-03-30T16:54:32.087Z,26.23
2023-03-30T16:56:59.961Z,26.57
2023-03-30T16:59:27.446Z,26.80
2023-03-30T17:01:55.561Z,26.57
2023-03-30T17:04:24.100Z,26.83
2023-03-30T17:06:51.371Z,27.77
2023-03-30T17:09:19.025Z,26.83
2023-03-30T17:11:47.344Z,26.97
2023-03-30T17:14:16.090Z,27.17
2023-03-30T17:16:49.127Z,27.97
2023-03-30T17:19:18.711Z,30.37
2023-03-30T17:21:57.175Z,27.00
2023-03-30T17:24:25.694Z,27.53
2023-03-30T17:26:55.725Z,28.23
2023-03-30T17:29:23.439Z,28.83
2023-03-30T17:31:52.602Z,28.70
2023-03-30T17:34:19.928Z,29.23
2023-03-30T17:36:47.787Z,28.73
2023-03-30T17:39:15.276Z,29.07
2023-03-30T17:41:43.845Z,27.53
2023-03-30T17:44:10.790Z,29.60
2023-03-30T17:46:37.742Z,29.40
2023-03-30T17:49:04.848Z,29.77
2023-03-30T17:51:31.590Z,30.43
2023-03-30T17:53:59.417Z,31.33
2023-03-30T17:56:26.962Z,30.83
2023-03-30T17:58:54.243Z,31.53
2023-03-30T18:01:21.130Z,33.10
2023-03-30T18:03:48.081Z,32.47
2023-03-30T18:06:14.721Z,32.57
2023-03-30T18:08:43.245Z,32.00
2023-03-30T18:11:10.155Z,31.43
2023-03-30T18:13:37.134Z,31.30
2023-03-30T18:16:03.865Z,30.57
2023-03-30T18:18:30.958Z,29.97
2023-03-30T18:20:59.063Z,28.60
2023-03-30T18:23:28.943Z,27.57
2023-03-30T18:25:58.306Z,28.27
2023-03-30T18:28:25.916Z,27.57
2023-03-30T18:30:57.533Z,27.77
2023-03-30T18:33:24.902Z,27.67
2023-03-30T18:35:52.212Z,26.00
2023-03-30T18:38:20.428Z,27.93
2023-03-30T18:40:50.079Z,28.90
2023-03-30T18:43:17.044Z,28.33
2023-03-30T18:45:48.066Z,26.50
2023-03-30T18:48:15.633Z,27.40
2023-03-30T18:50:45.967Z,28.27
2023-03-30T18:53:13.511Z,30.70
2023-03-30T18:55:42.275Z,30.63
2023-03-30T18:58:13.452Z,28.70
2023-03-30T19:00:40.352Z,30.50
2023-03-30T19:03:07.476Z,29.00
2023-03-30T19:05:34.487Z,30.77
2023-03-30T19:08:01.682Z,30.23
2023-03-30T19:10:31.675Z,30.80
2023-03-30T19:12:58.426Z,32.50
2023-03-30T19:15:26.645Z,31.27
2023-03-30T19:17:53.899Z,31.23
2023-03-30T19:20:21.578Z,29.80
2023-03-30T19:22:48.419Z,28.70
2023-03-30T19:25:16.705Z,30.73
2023-03-30T19:27:55.498Z,30.60
2023-03-30T19:30:32.991Z,25.93
2023-03-30T19:33:02.730Z,25.63
2023-03-30T19:35:29.840Z,27.33
2023-03-30T19:37:58.799Z,28.77
2023-03-30T19:40:26.982Z,28.07
2023-03-30T19:42:53.988Z,28.47
2023-03-30T19:45:21.323Z,25.50
2023-03-30T19:47:48.655Z,27.43
2023-03-30T19:50:18.964Z,28.57
2023-03-30T19:52:48.747Z,25.70
2023-03-30T19:55:15.766Z,27.40
2023-03-30T19:57:42.553Z,27.20
2023-03-30T20:00:12.844Z,27.63
2023-03-30T20:02:40.504Z,27.10
2023-03-30T20:05:07.532Z,27.07
2023-03-30T20:07:35.400Z,25.87
2023-03-30T20:10:02.321Z,27.67
2023-03-30T20:12:29.814Z,25.27
2023-03-30T20:14:59.009Z,21.80
2023-03-30T20:17:30.165Z,25.50
2023-03-30T20:19:58.314Z,23.20
2023-03-30T20:22:25.417Z,24.53
2023-03-30T20:24:52.305Z,23.03
2023-03-30T20:27:19.147Z,23.83
2023-03-30T20:29:46.850Z,24.47
2023-03-30T20:32:13.777Z,24.07
2023-03-30T20:34:40.634Z,22.87
2023-03-30T20:37:08.443Z,22.50
2023-03-30T20:39:37.302Z,22.80
2023-03-30T20:42:08.565Z,21.80
2023-03-30T20:44:35.464Z,20.60
2023-03-30T20:47:07.217Z,20.30
2023-03-30T20:49:34.211Z,19.93
2023-03-30T20:52:01.037Z,21.17
2023-03-30T20:54:28.215Z,16.47
2023-03-30T20:56:54.845Z,19.53
2023-03-30T20:59:22.625Z,19.47
2023-03-30T21:01:53.112Z,19.93
2023-03-30T21:04:19.971Z,18.77
2023-03-30T21:06:46.963Z,18.40
2023-03-30T21:09:13.735Z,18.47
2023-03-30T21:11:40.514Z,18.77
